sensor_id;sensor_type;location;lat;lon;timestamp;P1;durP1;ratioP1;P2;durP2;ratioP2
17175;SDS011;8703;48.996;9.594;2023-06-05T00:01:33;3.63;;;1.93;;
17175;SDS011;8703;48.996;9.594;2023-06-05T00:04:00;2.63;;;1.60;;
17175;SDS011;8703;48.996;9.594;2023-06-05T00:06:28;2.60;;;1.70;;
17175;SDS011;8703;48.996;9.594;2023-06-05T00:08:56;2.23;;;1.93;;
17175;SDS011;8703;48.996;9.594;2023-06-05T00:11:23;2.70;;;1.67;;
17175;SDS011;8703;48.996;9.594;2023-06-05T00:13:51;2.27;;;1.67;;
17175;SDS011;8703;48.996;9.594;2023-06-05T00:16:19;3.40;;;1.70;;
17175;SDS011;8703;48.996;9.594;2023-06-05T00:18:48;2.23;;;1.73;;
17175;SDS011;8703;48.996;9.594;2023-06-05T00:21:15;2.70;;;1.87;;
17175;SDS011;8703;48.996;9.594;2023-06-05T00:23:44;2.57;;;1.70;;
17175;SDS011;8703;48.996;9.594;2023-06-05T00:26:12;2.83;;;1.97;;
17175;SDS011;8703;48.996;9.594;2023-06-05T00:28:39;2.53;;;1.77;;
17175;SDS011;8703;48.996;9.594;2023-06-05T00:31:06;2.07;;;1.80;;
17175;SDS011;8703;48.996;9.594;2023-06-05T00:33:34;3.50;;;1.90;;
17175;SDS011;8703;48.996;9.594;2023-06-05T00:36:02;2.50;;;1.90;;
17175;SDS011;8703;48.996;9.594;2023-06-05T00:38:30;2.93;;;1.67;;
17175;SDS011;8703;48.996;9.594;2023-06-05T00:40:58;3.77;;;1.70;;
17175;SDS011;8703;48.996;9.594;2023-06-05T00:43:25;1.97;;;1.40;;
17175;SDS011;8703;48.996;9.594;2023-06-05T00:45:53;3.10;;;1.80;;
17175;SDS011;8703;48.996;9.594;2023-06-05T00:48:24;3.10;;;1.87;;
17175;SDS011;8703;48.996;9.594;2023-06-05T00:50:52;2.97;;;1.60;;
17175;SDS011;8703;48.996;9.594;2023-06-05T00:53:21;2.83;;;1.60;;
17175;SDS011;8703;48.996;9.594;2023-06-05T00:55:48;3.13;;;1.60;;
17175;SDS011;8703;48.996;9.594;2023-06-05T00:58:17;3.80;;;1.70;;
17175;SDS011;8703;48.996;9.594;2023-06-05T01:00:44;4.20;;;1.90;;
17175;SDS011;8703;48.996;9.594;2023-06-05T01:03:14;2.87;;;1.90;;
17175;SDS011;8703;48.996;9.594;2023-06-05T01:05:42;2.00;;;1.60;;
17175;SDS011;8703;48.996;9.594;2023-06-05T01:08:13;2.83;;;1.50;;
17175;SDS011;8703;48.996;9.594;2023-06-05T01:10:43;2.60;;;1.80;;
17175;SDS011;8703;48.996;9.594;2023-06-05T01:13:13;2.30;;;1.57;;
17175;SDS011;8703;48.996;9.594;2023-06-05T01:15:44;3.87;;;1.80;;
17175;SDS011;8703;48.996;9.594;2023-06-05T01:18:13;3.20;;;1.70;;
17175;SDS011;8703;48.996;9.594;2023-06-05T01:20:43;2.00;;;1.50;;
17175;SDS011;8703;48.996;9.594;2023-06-05T01:23:12;2.80;;;1.90;;
17175;SDS011;8703;48.996;9.594;2023-06-05T01:25:39;3.37;;;1.80;;
17175;SDS011;8703;48.996;9.594;2023-06-05T01:28:08;3.57;;;1.90;;
17175;SDS011;8703;48.996;9.594;2023-06-05T01:30:41;3.13;;;1.77;;
17175;SDS011;8703;48.996;9.594;2023-06-05T01:33:13;4.30;;;1.83;;
17175;SDS011;8703;48.996;9.594;2023-06-05T01:35:45;3.70;;;2.87;;
17175;SDS011;8703;48.996;9.594;2023-06-05T01:38:17;3.23;;;2.57;;
17175;SDS011;8703;48.996;9.594;2023-06-05T01:40:46;6.63;;;2.20;;
17175;SDS011;8703;48.996;9.594;2023-06-05T01:43:14;2.90;;;1.97;;
17175;SDS011;8703;48.996;9.594;2023-06-05T01:45:42;5.97;;;1.73;;
17175;SDS011;8703;48.996;9.594;2023-06-05T01:48:10;2.40;;;1.53;;
17175;SDS011;8703;48.996;9.594;2023-06-05T01:50:37;3.00;;;1.90;;
17175;SDS011;8703;48.996;9.594;2023-06-05T01:53:07;2.70;;;1.70;;
17175;SDS011;8703;48.996;9.594;2023-06-05T01:55:37;2.87;;;1.83;;
17175;SDS011;8703;48.996;9.594;2023-06-05T01:58:06;2.73;;;1.73;;
17175;SDS011;8703;48.996;9.594;2023-06-05T02:00:33;1.80;;;1.50;;
17175;SDS011;8703;48.996;9.594;2023-06-05T02:03:01;3.33;;;1.87;;
17175;SDS011;8703;48.996;9.594;2023-06-05T02:05:29;2.50;;;1.53;;
17175;SDS011;8703;48.996;9.594;2023-06-05T02:07:58;3.20;;;1.60;;
17175;SDS011;8703;48.996;9.594;2023-06-05T02:10:30;2.57;;;1.73;;
17175;SDS011;8703;48.996;9.594;2023-06-05T02:12:59;2.13;;;1.57;;
17175;SDS011;8703;48.996;9.594;2023-06-05T02:15:27;3.47;;;1.60;;
17175;SDS011;8703;48.996;9.594;2023-06-05T02:17:57;4.13;;;1.63;;
17175;SDS011;8703;48.996;9.594;2023-06-05T02:20:25;2.50;;;1.70;;
17175;SDS011;8703;48.996;9.594;2023-06-05T02:22:53;4.40;;;1.70;;
17175;SDS011;8703;48.996;9.594;2023-06-05T02:25:20;3.00;;;1.70;;
17175;SDS011;8703;48.996;9.594;2023-06-05T02:27:50;3.00;;;1.70;;
17175;SDS011;8703;48.996;9.594;2023-06-05T02:30:19;2.57;;;1.60;;
17175;SDS011;8703;48.996;9.594;2023-06-05T02:32:47;3.47;;;1.60;;
17175;SDS011;8703;48.996;9.594;2023-06-05T02:35:21;3.87;;;1.70;;
17175;SDS011;8703;48.996;9.594;2023-06-05T02:37:49;2.77;;;1.70;;
17175;SDS011;8703;48.996;9.594;2023-06-05T02:40:16;2.13;;;1.57;;
17175;SDS011;8703;48.996;9.594;2023-06-05T02:42:44;2.00;;;1.63;;
17175;SDS011;8703;48.996;9.594;2023-06-05T02:45:11;2.73;;;1.53;;
17175;SDS011;8703;48.996;9.594;2023-06-05T02:47:40;2.97;;;1.67;;
17175;SDS011;8703;48.996;9.594;2023-06-05T02:50:07;2.47;;;1.80;;
17175;SDS011;8703;48.996;9.594;2023-06-05T02:52:35;4.23;;;2.30;;
17175;SDS011;8703;48.996;9.594;2023-06-05T02:55:04;3.83;;;1.83;;
17175;SDS011;8703;48.996;9.594;2023-06-05T02:57:32;5.23;;;1.83;;
17175;SDS011;8703;48.996;9.594;2023-06-05T03:00:06;2.07;;;1.60;;
17175;SDS011;8703;48.996;9.594;2023-06-05T03:02:34;3.00;;;1.60;;
17175;SDS011;8703;48.996;9.594;2023-06-05T03:05:04;2.00;;;1.57;;
17175;SDS011;8703;48.996;9.594;2023-06-05T03:07:32;2.07;;;1.70;;
17175;SDS011;8703;48.996;9.594;2023-06-05T03:10:01;3.00;;;1.60;;
17175;SDS011;8703;48.996;9.594;2023-06-05T03:12:29;2.60;;;1.67;;
17175;SDS011;8703;48.996;9.594;2023-06-05T03:14:56;2.73;;;1.67;;
17175;SDS011;8703;48.996;9.594;2023-06-05T03:17:23;2.30;;;1.77;;
17175;SDS011;8703;48.996;9.594;2023-06-05T03:19:52;2.00;;;1.67;;
17175;SDS011;8703;48.996;9.594;2023-06-05T03:22:21;2.80;;;1.80;;
17175;SDS011;8703;48.996;9.594;2023-06-05T03:24:49;1.93;;;1.70;;
17175;SDS011;8703;48.996;9.594;2023-06-05T03:27:17;4.13;;;1.83;;
17175;SDS011;8703;48.996;9.594;2023-06-05T03:29:44;2.90;;;1.90;;
17175;SDS011;8703;48.996;9.594;2023-06-05T03:32:11;3.77;;;1.87;;
17175;SDS011;8703;48.996;9.594;2023-06-05T03:34:39;2.93;;;1.50;;
17175;SDS011;8703;48.996;9.594;2023-06-05T03:37:07;2.80;;;1.43;;
17175;SDS011;8703;48.996;9.594;2023-06-05T03:39:36;2.07;;;1.70;;
17175;SDS011;8703;48.996;9.594;2023-06-05T03:42:04;11.73;;;7.00;;
17175;SDS011;8703;48.996;9.594;2023-06-05T03:44:34;6.00;;;2.20;;
17175;SDS011;8703;48.996;9.594;2023-06-05T03:47:01;5.63;;;3.33;;
17175;SDS011;8703;48.996;9.594;2023-06-05T03:49:30;75.53;;;46.37;;
17175;SDS011;8703;48.996;9.594;2023-06-05T03:51:57;52.50;;;31.97;;
17175;SDS011;8703;48.996;9.594;2023-06-05T03:54:28;21.43;;;11.50;;
17175;SDS011;8703;48.996;9.594;2023-06-05T03:56:59;70.40;;;35.27;;
17175;SDS011;8703;48.996;9.594;2023-06-05T03:59:27;46.23;;;21.40;;
17175;SDS011;8703;48.996;9.594;2023-06-05T04:01:55;19.10;;;9.53;;
17175;SDS011;8703;48.996;9.594;2023-06-05T04:04:22;2.60;;;2.07;;
17175;SDS011;8703;48.996;9.594;2023-06-05T04:06:50;3.20;;;1.57;;
17175;SDS011;8703;48.996;9.594;2023-06-05T04:09:19;6.53;;;3.20;;
17175;SDS011;8703;48.996;9.594;2023-06-05T04:11:47;7.10;;;3.33;;
17175;SDS011;8703;48.996;9.594;2023-06-05T04:14:16;2.47;;;1.80;;
17175;SDS011;8703;48.996;9.594;2023-06-05T04:16:44;9.87;;;3.80;;
17175;SDS011;8703;48.996;9.594;2023-06-05T04:19:11;14.23;;;8.33;;
17175;SDS011;8703;48.996;9.594;2023-06-05T04:21:39;4.87;;;2.30;;
17175;SDS011;8703;48.996;9.594;2023-06-05T04:24:08;2.73;;;1.67;;
17175;SDS011;8703;48.996;9.594;2023-06-05T04:26:36;7.27;;;4.57;;
17175;SDS011;8703;48.996;9.594;2023-06-05T04:29:06;5.97;;;3.23;;
17175;SDS011;8703;48.996;9.594;2023-06-05T04:31:39;4.67;;;2.00;;
17175;SDS011;8703;48.996;9.594;2023-06-05T04:34:07;12.60;;;7.10;;
17175;SDS011;8703;48.996;9.594;2023-06-05T04:36:35;2.47;;;1.90;;
17175;SDS011;8703;48.996;9.594;2023-06-05T04:39:03;8.23;;;5.33;;
17175;SDS011;8703;48.996;9.594;2023-06-05T04:41:36;5.63;;;2.80;;
17175;SDS011;8703;48.996;9.594;2023-06-05T04:44:09;14.53;;;12.17;;
17175;SDS011;8703;48.996;9.594;2023-06-05T04:46:39;4.80;;;3.47;;
17175;SDS011;8703;48.996;9.594;2023-06-05T04:49:09;4.07;;;2.40;;
17175;SDS011;8703;48.996;9.594;2023-06-05T04:51:36;3.83;;;2.63;;
17175;SDS011;8703;48.996;9.594;2023-06-05T04:54:04;8.90;;;6.53;;
17175;SDS011;8703;48.996;9.594;2023-06-05T04:56:31;3.57;;;2.57;;
17175;SDS011;8703;48.996;9.594;2023-06-05T04:58:59;5.20;;;1.90;;
17175;SDS011;8703;48.996;9.594;2023-06-05T05:01:27;2.80;;;1.90;;
17175;SDS011;8703;48.996;9.594;2023-06-05T05:03:56;4.27;;;1.90;;
17175;SDS011;8703;48.996;9.594;2023-06-05T05:06:24;3.50;;;2.00;;
17175;SDS011;8703;48.996;9.594;2023-06-05T05:08:52;3.23;;;2.10;;
17175;SDS011;8703;48.996;9.594;2023-06-05T05:11:19;3.50;;;2.00;;
17175;SDS011;8703;48.996;9.594;2023-06-05T05:13:47;3.33;;;2.00;;
17175;SDS011;8703;48.996;9.594;2023-06-05T05:16:14;3.07;;;1.90;;
17175;SDS011;8703;48.996;9.594;2023-06-05T05:18:42;2.90;;;2.10;;
17175;SDS011;8703;48.996;9.594;2023-06-05T05:21:11;5.23;;;3.93;;
17175;SDS011;8703;48.996;9.594;2023-06-05T05:23:39;3.13;;;2.10;;
17175;SDS011;8703;48.996;9.594;2023-06-05T05:26:06;3.37;;;1.97;;
17175;SDS011;8703;48.996;9.594;2023-06-05T05:28:35;3.07;;;2.17;;
17175;SDS011;8703;48.996;9.594;2023-06-05T05:31:02;3.73;;;2.00;;
17175;SDS011;8703;48.996;9.594;2023-06-05T05:33:30;4.47;;;2.10;;
17175;SDS011;8703;48.996;9.594;2023-06-05T05:35:57;3.37;;;2.07;;
17175;SDS011;8703;48.996;9.594;2023-06-05T05:38:26;2.83;;;2.07;;
17175;SDS011;8703;48.996;9.594;2023-06-05T05:40:53;3.97;;;2.17;;
17175;SDS011;8703;48.996;9.594;2023-06-05T05:43:21;4.30;;;2.10;;
17175;SDS011;8703;48.996;9.594;2023-06-05T05:45:48;3.47;;;2.10;;
17175;SDS011;8703;48.996;9.594;2023-06-05T05:48:15;4.13;;;2.10;;
17175;SDS011;8703;48.996;9.594;2023-06-05T05:50:43;4.27;;;2.23;;
17175;SDS011;8703;48.996;9.594;2023-06-05T05:53:11;4.40;;;2.43;;
17175;SDS011;8703;48.996;9.594;2023-06-05T05:55:39;9.77;;;4.73;;
17175;SDS011;8703;48.996;9.594;2023-06-05T05:58:07;6.33;;;3.10;;
17175;SDS011;8703;48.996;9.594;2023-06-05T06:00:34;5.27;;;2.60;;
17175;SDS011;8703;48.996;9.594;2023-06-05T06:03:01;4.87;;;2.60;;
17175;SDS011;8703;48.996;9.594;2023-06-05T06:05:30;5.67;;;2.80;;
17175;SDS011;8703;48.996;9.594;2023-06-05T06:07:58;10.10;;;2.60;;
17175;SDS011;8703;48.996;9.594;2023-06-05T06:10:25;3.57;;;2.50;;
17175;SDS011;8703;48.996;9.594;2023-06-05T06:12:54;5.70;;;2.90;;
17175;SDS011;8703;48.996;9.594;2023-06-05T06:15:22;3.70;;;2.67;;
17175;SDS011;8703;48.996;9.594;2023-06-05T06:17:49;5.90;;;2.97;;
17175;SDS011;8703;48.996;9.594;2023-06-05T06:20:17;4.87;;;2.90;;
17175;SDS011;8703;48.996;9.594;2023-06-05T06:22:44;6.83;;;3.53;;
17175;SDS011;8703;48.996;9.594;2023-06-05T06:25:11;4.03;;;2.90;;
17175;SDS011;8703;48.996;9.594;2023-06-05T06:27:41;5.30;;;3.30;;
17175;SDS011;8703;48.996;9.594;2023-06-05T06:30:10;5.53;;;2.90;;
17175;SDS011;8703;48.996;9.594;2023-06-05T06:32:37;5.93;;;3.30;;
17175;SDS011;8703;48.996;9.594;2023-06-05T06:35:05;5.43;;;3.17;;
17175;SDS011;8703;48.996;9.594;2023-06-05T06:37:33;5.67;;;3.20;;
17175;SDS011;8703;48.996;9.594;2023-06-05T06:40:01;5.83;;;3.20;;
17175;SDS011;8703;48.996;9.594;2023-06-05T06:42:32;6.83;;;3.13;;
17175;SDS011;8703;48.996;9.594;2023-06-05T06:45:00;4.33;;;2.47;;
17175;SDS011;8703;48.996;9.594;2023-06-05T06:47:30;3.90;;;2.93;;
17175;SDS011;8703;48.996;9.594;2023-06-05T06:49:57;4.27;;;2.50;;
17175;SDS011;8703;48.996;9.594;2023-06-05T06:52:25;3.27;;;2.50;;
17175;SDS011;8703;48.996;9.594;2023-06-05T06:54:52;4.03;;;2.50;;
17175;SDS011;8703;48.996;9.594;2023-06-05T06:57:20;5.60;;;2.67;;
17175;SDS011;8703;48.996;9.594;2023-06-05T06:59:47;2.80;;;2.50;;
17175;SDS011;8703;48.996;9.594;2023-06-05T07:02:14;4.37;;;2.63;;
17175;SDS011;8703;48.996;9.594;2023-06-05T07:04:46;4.00;;;2.30;;
17175;SDS011;8703;48.996;9.594;2023-06-05T07:07:14;5.03;;;2.47;;
17175;SDS011;8703;48.996;9.594;2023-06-05T07:09:43;4.47;;;2.60;;
17175;SDS011;8703;48.996;9.594;2023-06-05T07:12:12;4.45;;;2.53;;
17175;SDS011;8703;48.996;9.594;2023-06-05T07:14:40;3.47;;;2.55;;
17175;SDS011;8703;48.996;9.594;2023-06-05T07:17:08;5.00;;;2.60;;
17175;SDS011;8703;48.996;9.594;2023-06-05T07:19:35;3.45;;;2.58;;
17175;SDS011;8703;48.996;9.594;2023-06-05T07:22:04;4.88;;;2.42;;
17175;SDS011;8703;48.996;9.594;2023-06-05T07:24:32;3.90;;;2.40;;
17175;SDS011;8703;48.996;9.594;2023-06-05T07:27:02;5.03;;;2.57;;
17175;SDS011;8703;48.996;9.594;2023-06-05T07:29:30;5.93;;;2.90;;
17175;SDS011;8703;48.996;9.594;2023-06-05T07:31:57;4.80;;;3.10;;
17175;SDS011;8703;48.996;9.594;2023-06-05T07:34:25;6.32;;;2.92;;
17175;SDS011;8703;48.996;9.594;2023-06-05T07:36:53;5.78;;;3.05;;
17175;SDS011;8703;48.996;9.594;2023-06-05T07:39:23;5.50;;;3.33;;
17175;SDS011;8703;48.996;9.594;2023-06-05T07:41:50;5.13;;;3.40;;
17175;SDS011;8703;48.996;9.594;2023-06-05T07:44:18;5.13;;;3.20;;
17175;SDS011;8703;48.996;9.594;2023-06-05T07:46:47;5.30;;;3.47;;
17175;SDS011;8703;48.996;9.594;2023-06-05T07:49:15;4.25;;;2.85;;
17175;SDS011;8703;48.996;9.594;2023-06-05T07:51:43;5.43;;;3.30;;
17175;SDS011;8703;48.996;9.594;2023-06-05T07:54:12;4.47;;;3.40;;
17175;SDS011;8703;48.996;9.594;2023-06-05T07:56:42;8.18;;;4.10;;
17175;SDS011;8703;48.996;9.594;2023-06-05T07:59:13;4.35;;;3.53;;
17175;SDS011;8703;48.996;9.594;2023-06-05T08:01:42;5.45;;;4.03;;
17175;SDS011;8703;48.996;9.594;2023-06-05T08:04:10;3.95;;;3.53;;
17175;SDS011;8703;48.996;9.594;2023-06-05T08:06:37;5.40;;;3.88;;
17175;SDS011;8703;48.996;9.594;2023-06-05T08:09:05;7.05;;;3.80;;
17175;SDS011;8703;48.996;9.594;2023-06-05T08:11:34;4.65;;;3.63;;
17175;SDS011;8703;48.996;9.594;2023-06-05T08:14:04;4.65;;;3.55;;
17175;SDS011;8703;48.996;9.594;2023-06-05T08:16:32;7.30;;;3.72;;
17175;SDS011;8703;48.996;9.594;2023-06-05T08:18:59;6.28;;;3.75;;
17175;SDS011;8703;48.996;9.594;2023-06-05T08:21:27;4.15;;;3.60;;
17175;SDS011;8703;48.996;9.594;2023-06-05T08:23:55;5.93;;;3.60;;
17175;SDS011;8703;48.996;9.594;2023-06-05T08:26:22;5.05;;;3.25;;
17175;SDS011;8703;48.996;9.594;2023-06-05T08:28:50;5.63;;;3.60;;
17175;SDS011;8703;48.996;9.594;2023-06-05T08:31:19;5.78;;;3.38;;
17175;SDS011;8703;48.996;9.594;2023-06-05T08:33:47;5.43;;;3.70;;
17175;SDS011;8703;48.996;9.594;2023-06-05T08:36:14;4.25;;;3.20;;
17175;SDS011;8703;48.996;9.594;2023-06-05T08:38:42;4.00;;;2.88;;
17175;SDS011;8703;48.996;9.594;2023-06-05T08:41:12;6.63;;;3.55;;
17175;SDS011;8703;48.996;9.594;2023-06-05T08:43:41;4.38;;;3.20;;
17175;SDS011;8703;48.996;9.594;2023-06-05T08:46:11;5.57;;;3.20;;
17175;SDS011;8703;48.996;9.594;2023-06-05T08:48:42;5.97;;;3.50;;
17175;SDS011;8703;48.996;9.594;2023-06-05T08:51:11;5.88;;;3.47;;
17175;SDS011;8703;48.996;9.594;2023-06-05T08:53:39;7.03;;;3.88;;
17175;SDS011;8703;48.996;9.594;2023-06-05T08:56:10;4.65;;;3.65;;
17175;SDS011;8703;48.996;9.594;2023-06-05T08:58:37;4.07;;;2.97;;
17175;SDS011;8703;48.996;9.594;2023-06-05T09:01:05;4.15;;;3.28;;
17175;SDS011;8703;48.996;9.594;2023-06-05T09:03:32;5.20;;;3.58;;
17175;SDS011;8703;48.996;9.594;2023-06-05T09:06:01;5.35;;;3.25;;
17175;SDS011;8703;48.996;9.594;2023-06-05T09:08:29;4.75;;;3.00;;
17175;SDS011;8703;48.996;9.594;2023-06-05T09:13:50;5.05;;;3.28;;
17175;SDS011;8703;48.996;9.594;2023-06-05T09:16:20;5.43;;;3.40;;
17175;SDS011;8703;48.996;9.594;2023-06-05T09:18:53;4.90;;;2.95;;
17175;SDS011;8703;48.996;9.594;2023-06-05T09:21:22;3.40;;;2.47;;
17175;SDS011;8703;48.996;9.594;2023-06-05T09:24:15;3.90;;;2.42;;
17175;SDS011;8703;48.996;9.594;2023-06-05T09:26:47;5.80;;;3.30;;
17175;SDS011;8703;48.996;9.594;2023-06-05T09:29:19;5.50;;;2.90;;
17175;SDS011;8703;48.996;9.594;2023-06-05T09:31:47;5.00;;;3.00;;
17175;SDS011;8703;48.996;9.594;2023-06-05T09:34:25;4.40;;;2.78;;
17175;SDS011;8703;48.996;9.594;2023-06-05T09:36:54;4.90;;;2.80;;
17175;SDS011;8703;48.996;9.594;2023-06-05T09:39:23;4.05;;;2.92;;
17175;SDS011;8703;48.996;9.594;2023-06-05T09:41:53;3.58;;;2.85;;
17175;SDS011;8703;48.996;9.594;2023-06-05T09:44:22;5.45;;;3.10;;
17175;SDS011;8703;48.996;9.594;2023-06-05T09:46:50;5.15;;;2.80;;
17175;SDS011;8703;48.996;9.594;2023-06-05T09:49:18;4.43;;;2.70;;
17175;SDS011;8703;48.996;9.594;2023-06-05T09:51:46;5.05;;;3.00;;
17175;SDS011;8703;48.996;9.594;2023-06-05T09:54:15;4.82;;;2.72;;
17175;SDS011;8703;48.996;9.594;2023-06-05T09:56:46;4.28;;;3.13;;
17175;SDS011;8703;48.996;9.594;2023-06-05T09:59:21;3.97;;;2.97;;
17175;SDS011;8703;48.996;9.594;2023-06-05T10:01:49;6.72;;;3.17;;
17175;SDS011;8703;48.996;9.594;2023-06-05T10:04:19;5.50;;;3.08;;
17175;SDS011;8703;48.996;9.594;2023-06-05T10:06:48;3.95;;;3.17;;
17175;SDS011;8703;48.996;9.594;2023-06-05T10:09:18;6.20;;;3.22;;
17175;SDS011;8703;48.996;9.594;2023-06-05T10:11:48;3.55;;;3.17;;
17175;SDS011;8703;48.996;9.594;2023-06-05T10:14:17;7.93;;;3.20;;
17175;SDS011;8703;48.996;9.594;2023-06-05T10:16:46;4.22;;;3.10;;
17175;SDS011;8703;48.996;9.594;2023-06-05T10:19:16;3.30;;;2.80;;
17175;SDS011;8703;48.996;9.594;2023-06-05T10:21:46;4.13;;;2.70;;
17175;SDS011;8703;48.996;9.594;2023-06-05T10:24:14;3.60;;;3.00;;
17175;SDS011;8703;48.996;9.594;2023-06-05T10:30:04;3.92;;;2.97;;
17175;SDS011;8703;48.996;9.594;2023-06-05T10:32:59;4.55;;;3.15;;
17175;SDS011;8703;48.996;9.594;2023-06-05T10:35:43;4.97;;;3.10;;
17175;SDS011;8703;48.996;9.594;2023-06-05T10:38:17;6.88;;;3.28;;
17175;SDS011;8703;48.996;9.594;2023-06-05T10:40:50;4.68;;;3.10;;
17175;SDS011;8703;48.996;9.594;2023-06-05T10:43:25;4.18;;;3.10;;
17175;SDS011;8703;48.996;9.594;2023-06-05T10:45:54;4.75;;;3.13;;
17175;SDS011;8703;48.996;9.594;2023-06-05T10:51:33;5.15;;;2.97;;
17175;SDS011;8703;48.996;9.594;2023-06-05T10:54:04;3.72;;;3.00;;
17175;SDS011;8703;48.996;9.594;2023-06-05T10:59:32;4.60;;;3.40;;
17175;SDS011;8703;48.996;9.594;2023-06-05T11:05:06;4.28;;;3.42;;
17175;SDS011;8703;48.996;9.594;2023-06-05T11:07:37;4.30;;;3.45;;
17175;SDS011;8703;48.996;9.594;2023-06-05T11:10:08;4.68;;;3.25;;
17175;SDS011;8703;48.996;9.594;2023-06-05T11:13:00;4.60;;;3.38;;
17175;SDS011;8703;48.996;9.594;2023-06-05T11:15:35;4.32;;;3.53;;
17175;SDS011;8703;48.996;9.594;2023-06-05T11:21:00;4.60;;;3.70;;
17175;SDS011;8703;48.996;9.594;2023-06-05T11:23:28;4.50;;;3.63;;
17175;SDS011;8703;48.996;9.594;2023-06-05T11:25:56;4.47;;;3.63;;
17175;SDS011;8703;48.996;9.594;2023-06-05T11:28:39;6.40;;;3.70;;
17175;SDS011;8703;48.996;9.594;2023-06-05T11:31:06;6.80;;;3.15;;
17175;SDS011;8703;48.996;9.594;2023-06-05T11:33:34;5.38;;;3.80;;
17175;SDS011;8703;48.996;9.594;2023-06-05T11:36:03;4.22;;;3.67;;
17175;SDS011;8703;48.996;9.594;2023-06-05T11:38:33;5.28;;;4.47;;
17175;SDS011;8703;48.996;9.594;2023-06-05T11:41:05;6.00;;;4.43;;
17175;SDS011;8703;48.996;9.594;2023-06-05T11:43:42;5.63;;;3.97;;
17175;SDS011;8703;48.996;9.594;2023-06-05T11:46:09;6.88;;;4.15;;
17175;SDS011;8703;48.996;9.594;2023-06-05T11:48:42;4.40;;;4.00;;
17175;SDS011;8703;48.996;9.594;2023-06-05T11:51:10;5.85;;;4.70;;
17175;SDS011;8703;48.996;9.594;2023-06-05T11:53:43;8.05;;;4.57;;
17175;SDS011;8703;48.996;9.594;2023-06-05T11:56:12;4.97;;;4.57;;
17175;SDS011;8703;48.996;9.594;2023-06-05T11:58:43;6.07;;;5.53;;
17175;SDS011;8703;48.996;9.594;2023-06-05T12:01:12;5.00;;;4.50;;
17175;SDS011;8703;48.996;9.594;2023-06-05T12:03:43;5.78;;;5.35;;
17175;SDS011;8703;48.996;9.594;2023-06-05T12:06:11;6.75;;;6.15;;
17175;SDS011;8703;48.996;9.594;2023-06-05T12:08:38;6.88;;;6.15;;
17175;SDS011;8703;48.996;9.594;2023-06-05T12:11:18;6.80;;;6.25;;
17175;SDS011;8703;48.996;9.594;2023-06-05T12:13:49;12.98;;;11.85;;
17175;SDS011;8703;48.996;9.594;2023-06-05T12:16:17;10.80;;;10.10;;
17175;SDS011;8703;48.996;9.594;2023-06-05T12:18:46;16.35;;;15.27;;
17175;SDS011;8703;48.996;9.594;2023-06-05T12:21:21;17.30;;;16.05;;
17175;SDS011;8703;48.996;9.594;2023-06-05T12:23:49;21.70;;;20.40;;
17175;SDS011;8703;48.996;9.594;2023-06-05T12:26:17;20.15;;;18.65;;
17175;SDS011;8703;48.996;9.594;2023-06-05T12:28:45;15.35;;;14.23;;
17175;SDS011;8703;48.996;9.594;2023-06-05T12:34:01;14.07;;;13.20;;
17175;SDS011;8703;48.996;9.594;2023-06-05T12:36:29;23.20;;;21.67;;
17175;SDS011;8703;48.996;9.594;2023-06-05T12:39:01;23.88;;;22.42;;
17175;SDS011;8703;48.996;9.594;2023-06-05T12:41:32;25.67;;;24.13;;
17175;SDS011;8703;48.996;9.594;2023-06-05T12:43:59;18.20;;;17.10;;
17175;SDS011;8703;48.996;9.594;2023-06-05T12:46:29;35.45;;;33.45;;
17175;SDS011;8703;48.996;9.594;2023-06-05T12:48:58;22.50;;;21.02;;
17175;SDS011;8703;48.996;9.594;2023-06-05T12:51:25;31.88;;;29.95;;
17175;SDS011;8703;48.996;9.594;2023-06-05T12:53:53;31.52;;;29.70;;
17175;SDS011;8703;48.996;9.594;2023-06-05T12:56:20;17.98;;;16.77;;
17175;SDS011;8703;48.996;9.594;2023-06-05T12:58:50;30.05;;;28.38;;
17175;SDS011;8703;48.996;9.594;2023-06-05T13:01:18;29.67;;;28.08;;
17175;SDS011;8703;48.996;9.594;2023-06-05T13:03:46;41.25;;;38.92;;
17175;SDS011;8703;48.996;9.594;2023-06-05T13:06:15;19.35;;;18.15;;
17175;SDS011;8703;48.996;9.594;2023-06-05T13:08:43;21.10;;;19.83;;
17175;SDS011;8703;48.996;9.594;2023-06-05T13:11:11;21.52;;;20.30;;
17175;SDS011;8703;48.996;9.594;2023-06-05T13:13:39;29.73;;;27.80;;
17175;SDS011;8703;48.996;9.594;2023-06-05T13:16:07;38.08;;;36.10;;
17175;SDS011;8703;48.996;9.594;2023-06-05T13:18:35;33.65;;;31.85;;
17175;SDS011;8703;48.996;9.594;2023-06-05T13:21:03;30.80;;;29.10;;
17175;SDS011;8703;48.996;9.594;2023-06-05T13:23:31;33.35;;;31.60;;
17175;SDS011;8703;48.996;9.594;2023-06-05T13:25:59;18.88;;;17.70;;
17175;SDS011;8703;48.996;9.594;2023-06-05T13:28:27;17.80;;;16.65;;
17175;SDS011;8703;48.996;9.594;2023-06-05T13:30:55;28.88;;;27.30;;
17175;SDS011;8703;48.996;9.594;2023-06-05T13:33:23;29.23;;;27.38;;
17175;SDS011;8703;48.996;9.594;2023-06-05T13:35:50;36.72;;;34.80;;
17175;SDS011;8703;48.996;9.594;2023-06-05T13:38:18;31.60;;;29.65;;
17175;SDS011;8703;48.996;9.594;2023-06-05T13:40:48;31.48;;;29.77;;
17175;SDS011;8703;48.996;9.594;2023-06-05T13:43:17;23.88;;;22.52;;
17175;SDS011;8703;48.996;9.594;2023-06-05T13:45:44;24.70;;;23.27;;
17175;SDS011;8703;48.996;9.594;2023-06-05T13:48:12;25.33;;;23.95;;
17175;SDS011;8703;48.996;9.594;2023-06-05T13:50:39;23.70;;;22.20;;
17175;SDS011;8703;48.996;9.594;2023-06-05T13:53:06;32.67;;;30.77;;
17175;SDS011;8703;48.996;9.594;2023-06-05T13:55:34;28.63;;;26.92;;
17175;SDS011;8703;48.996;9.594;2023-06-05T13:58:03;43.25;;;40.63;;
17175;SDS011;8703;48.996;9.594;2023-06-05T14:00:30;30.88;;;29.17;;
17175;SDS011;8703;48.996;9.594;2023-06-05T14:02:58;29.20;;;27.45;;
17175;SDS011;8703;48.996;9.594;2023-06-05T14:05:25;34.70;;;32.80;;
17175;SDS011;8703;48.996;9.594;2023-06-05T14:07:54;42.30;;;39.92;;
17175;SDS011;8703;48.996;9.594;2023-06-05T14:10:22;46.22;;;43.47;;
17175;SDS011;8703;48.996;9.594;2023-06-05T14:12:50;59.90;;;56.45;;
17175;SDS011;8703;48.996;9.594;2023-06-05T14:15:20;65.40;;;61.63;;
17175;SDS011;8703;48.996;9.594;2023-06-05T14:17:48;86.10;;;81.22;;
17175;SDS011;8703;48.996;9.594;2023-06-05T14:20:17;89.95;;;85.05;;
17175;SDS011;8703;48.996;9.594;2023-06-05T14:22:45;86.72;;;81.95;;
17175;SDS011;8703;48.996;9.594;2023-06-05T14:25:13;96.57;;;91.43;;
17175;SDS011;8703;48.996;9.594;2023-06-05T14:27:40;100.43;;;94.95;;
17175;SDS011;8703;48.996;9.594;2023-06-05T14:30:08;93.43;;;88.38;;
17175;SDS011;8703;48.996;9.594;2023-06-05T14:32:37;125.25;;;118.60;;
17175;SDS011;8703;48.996;9.594;2023-06-05T14:35:05;113.10;;;106.88;;
17175;SDS011;8703;48.996;9.594;2023-06-05T14:37:32;132.93;;;126.07;;
17175;SDS011;8703;48.996;9.594;2023-06-05T14:40:00;128.68;;;122.15;;
17175;SDS011;8703;48.996;9.594;2023-06-05T14:42:28;143.25;;;135.75;;
17175;SDS011;8703;48.996;9.594;2023-06-05T14:44:55;110.90;;;105.43;;
17175;SDS011;8703;48.996;9.594;2023-06-05T14:47:22;119.97;;;113.70;;
17175;SDS011;8703;48.996;9.594;2023-06-05T14:49:51;136.82;;;129.80;;
17175;SDS011;8703;48.996;9.594;2023-06-05T14:52:18;55.05;;;52.13;;
17175;SDS011;8703;48.996;9.594;2023-06-05T14:54:46;124.85;;;118.53;;
17175;SDS011;8703;48.996;9.594;2023-06-05T14:57:13;67.53;;;64.20;;
17175;SDS011;8703;48.996;9.594;2023-06-05T14:59:40;138.85;;;132.10;;
17175;SDS011;8703;48.996;9.594;2023-06-05T15:02:08;76.78;;;73.03;;
17175;SDS011;8703;48.996;9.594;2023-06-05T15:04:35;88.00;;;83.70;;
17175;SDS011;8703;48.996;9.594;2023-06-05T15:07:04;63.75;;;60.47;;
17175;SDS011;8703;48.996;9.594;2023-06-05T15:09:32;65.20;;;61.85;;
17175;SDS011;8703;48.996;9.594;2023-06-05T15:11:59;101.57;;;96.45;;
17175;SDS011;8703;48.996;9.594;2023-06-05T15:14:27;107.03;;;101.75;;
17175;SDS011;8703;48.996;9.594;2023-06-05T15:16:55;68.35;;;65.00;;
17175;SDS011;8703;48.996;9.594;2023-06-05T15:19:22;72.70;;;69.13;;
17175;SDS011;8703;48.996;9.594;2023-06-05T15:21:49;73.95;;;70.32;;
17175;SDS011;8703;48.996;9.594;2023-06-05T15:24:18;88.47;;;84.05;;